createdAt,value
2022-09-07T00:00:03.229Z,19.98
2022-09-07T00:01:03.217Z,19.97
2022-09-07T00:02:02.125Z,19.97
2022-09-07T00:03:02.439Z,19.94
2022-09-07T00:04:02.766Z,19.95
2022-09-07T00:05:02.532Z,19.95
2022-09-07T00:06:02.433Z,19.94
2022-09-07T00:07:02.225Z,19.90
2022-09-07T00:08:02.817Z,19.90
2022-09-07T00:09:02.329Z,19.84
2022-09-07T00:10:02.775Z,19.83
2022-09-07T00:11:02.664Z,19.81
2022-09-07T00:12:02.937Z,19.78
2022-09-07T00:13:02.761Z,19.79
2022-09-07T00:14:02.595Z,19.80
2022-09-07T00:15:03.093Z,19.80
2022-09-07T00:16:02.696Z,19.76
2022-09-07T00:17:02.839Z,19.76
2022-09-07T00:18:02.585Z,19.75
2022-09-07T00:19:03.125Z,19.80
2022-09-07T00:20:02.784Z,19.84
2022-09-07T00:21:02.601Z,19.83
2022-09-07T00:22:02.088Z,19.84
2022-09-07T00:23:02.404Z,19.87
2022-09-07T00:24:02.167Z,19.88
2022-09-07T00:25:02.144Z,19.91
2022-09-07T00:26:02.712Z,19.94
2022-09-07T00:27:02.237Z,19.95
2022-09-07T00:28:02.797Z,19.95
2022-09-07T00:29:02.672Z,20.00
2022-09-07T00:30:02.458Z,20.03
2022-09-07T00:31:02.767Z,20.09
2022-09-07T00:32:02.625Z,20.12
2022-09-07T00:33:03.471Z,20.16
2022-09-07T00:34:02.962Z,20.19
2022-09-07T00:35:02.790Z,20.21
2022-09-07T00:36:03.115Z,20.21
2022-09-07T00:37:02.960Z,20.19
2022-09-07T00:38:03.446Z,20.19
2022-09-07T00:39:02.933Z,20.16
2022-09-07T00:40:03.473Z,20.12
2022-09-07T00:41:03.030Z,20.08
2022-09-07T00:42:02.708Z,20.07
2022-09-07T00:43:02.642Z,20.06
2022-09-07T00:44:02.530Z,20.06
2022-09-07T00:45:03.132Z,20.03
2022-09-07T00:46:03.079Z,20.02
2022-09-07T00:47:02.760Z,19.97
2022-09-07T00:48:03.190Z,19.95
2022-09-07T00:49:02.987Z,19.98
2022-09-07T00:50:03.175Z,19.96
2022-09-07T00:51:02.982Z,19.99
2022-09-07T00:52:02.884Z,19.97
2022-09-07T00:53:03.337Z,19.94
2022-09-07T00:54:03.410Z,19.91
2022-09-07T00:55:03.074Z,19.90
2022-09-07T00:56:02.957Z,19.90
2022-09-07T00:57:02.627Z,19.94
2022-09-07T00:58:02.376Z,19.99
2022-09-07T00:59:02.459Z,20.03
2022-09-07T01:00:03.015Z,20.02
2022-09-07T01:01:02.628Z,19.97
2022-09-07T01:02:02.113Z,19.97
2022-09-07T01:03:02.262Z,19.97
2022-09-07T01:04:02.546Z,19.95
2022-09-07T01:05:04.482Z,19.96
2022-09-07T01:06:02.037Z,19.96
2022-09-07T01:07:02.328Z,19.92
2022-09-07T01:08:02.844Z,19.86
2022-09-07T01:09:02.958Z,19.81
2022-09-07T01:10:02.494Z,19.74
2022-09-07T01:11:02.975Z,19.75
2022-09-07T01:12:02.410Z,19.75
2022-09-07T01:13:02.234Z,19.78
2022-09-07T01:14:02.109Z,19.76
2022-09-07T01:15:02.657Z,19.75
2022-09-07T01:16:02.206Z,19.74
2022-09-07T01:17:02.893Z,19.77
2022-09-07T01:18:03.051Z,19.77
2022-09-07T01:19:02.611Z,19.81
2022-09-07T01:20:02.581Z,19.83
2022-09-07T01:21:02.991Z,19.84
2022-09-07T01:22:02.627Z,19.84
2022-09-07T01:23:02.365Z,19.87
2022-09-07T01:24:02.284Z,19.90
2022-09-07T01:25:02.231Z,19.91
2022-09-07T01:26:02.880Z,19.88
2022-09-07T01:27:03.233Z,19.85
2022-09-07T01:28:03.068Z,19.84
2022-09-07T01:29:02.976Z,19.83
2022-09-07T01:30:02.885Z,19.86
2022-09-07T01:31:03.291Z,19.91
2022-09-07T01:32:02.934Z,19.94
2022-09-07T01:33:02.874Z,19.95
2022-09-07T01:34:03.196Z,19.94
2022-09-07T01:35:02.669Z,19.96
2022-09-07T01:36:03.202Z,19.95
2022-09-07T01:37:02.594Z,19.95
2022-09-07T01:38:02.411Z,19.96
2022-09-07T01:39:02.592Z,19.98
2022-09-07T01:40:02.729Z,19.98
2022-09-07T01:41:02.455Z,19.95
2022-09-07T01:42:03.012Z,19.94
2022-09-07T01:43:02.825Z,19.94
2022-09-07T01:44:02.657Z,19.94
2022-09-07T01:45:02.814Z,19.97
2022-09-07T01:46:02.802Z,19.96
2022-09-07T01:47:03.268Z,19.97
2022-09-07T01:48:03.176Z,19.96
2022-09-07T01:49:03.328Z,19.92
2022-09-07T01:50:02.965Z,19.88
2022-09-07T01:51:02.871Z,19.85
2022-09-07T01:52:02.713Z,19.79
2022-09-07T01:53:02.734Z,19.79
2022-09-07T01:54:02.394Z,19.81
2022-09-07T01:55:02.210Z,19.82
2022-09-07T01:56:02.716Z,19.81
2022-09-07T01:57:03.225Z,19.80
2022-09-07T01:58:03.045Z,19.79
2022-09-07T01:59:03.148Z,19.76
2022-09-07T02:00:03.107Z,19.75
2022-09-07T02:01:03.221Z,19.71
2022-09-07T02:02:02.960Z,19.71
2022-09-07T02:03:02.926Z,19.67
2022-09-07T02:04:02.631Z,19.63
2022-09-07T02:05:02.472Z,19.63
2022-09-07T02:06:02.382Z,19.62
2022-09-07T02:07:02.914Z,19.59
2022-09-07T02:08:02.489Z,19.59
2022-09-07T02:09:02.513Z,19.58
2022-09-07T02:10:02.333Z,19.56
2022-09-07T02:11:02.829Z,19.57
2022-09-07T02:12:02.972Z,19.58
2022-09-07T02:13:03.013Z,19.61
2022-09-07T02:14:02.987Z,19.61
2022-09-07T02:15:02.847Z,19.58
2022-09-07T02:16:03.073Z,19.60
2022-09-07T02:17:02.691Z,19.59
2022-09-07T02:18:02.263Z,19.60
2022-09-07T02:19:02.081Z,19.60
2022-09-07T02:20:02.724Z,19.60
2022-09-07T02:21:02.321Z,19.57
2022-09-07T02:22:02.857Z,19.56
2022-09-07T02:23:02.421Z,19.52
2022-09-07T02:24:02.505Z,19.50
2022-09-07T02:25:02.363Z,19.49
2022-09-07T02:26:02.882Z,19.48
2022-09-07T02:27:02.671Z,19.46
2022-09-07T02:28:02.488Z,19.48
2022-09-07T02:29:02.367Z,19.47
2022-09-07T02:30:02.871Z,19.46
2022-09-07T02:31:02.697Z,19.47
2022-09-07T02:32:03.236Z,19.44
2022-09-07T02:33:02.814Z,19.43
2022-09-07T02:34:02.702Z,19.44
2022-09-07T02:35:02.974Z,19.47
2022-09-07T02:36:03.099Z,19.49
2022-09-07T02:37:02.137Z,19.48
2022-09-07T02:38:02.311Z,19.47
2022-09-07T02:39:02.172Z,19.49
2022-09-07T02:40:02.314Z,19.49
2022-09-07T02:41:02.080Z,19.48
2022-09-07T02:42:02.641Z,19.45
2022-09-07T02:43:03.234Z,19.39
2022-09-07T02:44:02.821Z,19.38
2022-09-07T02:45:02.655Z,19.38
2022-09-07T02:46:03.021Z,19.39
2022-09-07T02:47:02.920Z,19.42
2022-09-07T02:48:03.531Z,19.40
2022-09-07T02:49:03.105Z,19.38
2022-09-07T02:50:02.934Z,19.35
2022-09-07T02:51:03.479Z,19.30
2022-09-07T02:52:03.517Z,19.29
2022-09-07T02:53:03.409Z,19.28
2022-09-07T02:54:03.701Z,19.26
2022-09-07T02:55:03.463Z,19.23
2022-09-07T02:56:03.289Z,19.23
2022-09-07T02:57:02.203Z,19.23
2022-09-07T02:58:02.404Z,19.21
2022-09-07T02:59:02.270Z,19.20
2022-09-07T03:00:02.323Z,19.18
2022-09-07T03:01:02.279Z,19.17
2022-09-07T03:02:03.271Z,19.20
2022-09-07T03:03:03.116Z,19.26
2022-09-07T03:04:03.034Z,19.28
2022-09-07T03:05:02.847Z,19.27
2022-09-07T03:06:03.390Z,19.25
2022-09-07T03:07:02.292Z,19.20
2022-09-07T03:08:02.230Z,19.16
2022-09-07T03:09:02.376Z,19.12
2022-09-07T03:10:02.460Z,19.11
2022-09-07T03:11:02.275Z,19.11
2022-09-07T03:12:02.788Z,19.07
2022-09-07T03:13:03.423Z,19.03
2022-09-07T03:14:02.993Z,19.05
2022-09-07T03:15:03.105Z,19.09
2022-09-07T03:16:02.995Z,19.11
2022-09-07T03:17:02.978Z,19.07
2022-09-07T03:18:02.736Z,19.08
2022-09-07T03:19:02.854Z,19.09
2022-09-07T03:20:03.044Z,19.06
2022-09-07T03:21:03.318Z,19.02
2022-09-07T03:22:03.133Z,18.96
2022-09-07T03:23:02.964Z,18.96
2022-09-07T03:24:03.398Z,19.00
2022-09-07T03:25:03.013Z,19.01
2022-09-07T03:26:02.808Z,18.99
2022-09-07T03:27:02.412Z,19.02
2022-09-07T03:28:02.851Z,19.04
2022-09-07T03:29:02.434Z,18.99
2022-09-07T03:30:02.284Z,18.97
2022-09-07T03:31:02.726Z,18.96
2022-09-07T03:32:02.652Z,18.93
2022-09-07T03:33:02.475Z,18.90
2022-09-07T03:34:02.730Z,18.86
2022-09-07T03:35:02.866Z,18.83
2022-09-07T03:36:02.822Z,18.82
2022-09-07T03:37:03.354Z,18.77
2022-09-07T03:38:03.589Z,18.70
2022-09-07T03:39:03.470Z,18.69
2022-09-07T03:40:03.418Z,18.68
2022-09-07T03:41:03.313Z,18.66
2022-09-07T03:42:02.667Z,18.64
2022-09-07T03:43:03.042Z,18.63
2022-09-07T03:44:02.720Z,18.64
2022-09-07T03:45:02.549Z,18.65
2022-09-07T03:46:02.581Z,18.64
2022-09-07T03:47:03.526Z,18.62
2022-09-07T03:48:03.212Z,18.62
2022-09-07T03:49:03.121Z,18.60
2022-09-07T03:50:03.598Z,18.60
2022-09-07T03:51:03.468Z,18.60
2022-09-07T03:52:02.958Z,18.58
2022-09-07T03:53:03.177Z,18.59
2022-09-07T03:54:03.067Z,18.58
2022-09-07T03:55:03.236Z,18.56
2022-09-07T03:56:03.147Z,18.50
2022-09-07T03:57:03.030Z,18.44
2022-09-07T03:58:02.900Z,18.44
2022-09-07T03:59:03.004Z,18.41
2022-09-07T04:00:03.032Z,18.40
2022-09-07T04:01:03.182Z,18.38
2022-09-07T04:02:02.201Z,18.37
2022-09-07T04:03:02.010Z,18.35
2022-09-07T04:04:02.515Z,18.34
2022-09-07T04:05:01.839Z,18.35
2022-09-07T04:06:02.417Z,18.35
2022-09-07T04:07:02.635Z,18.36
2022-09-07T04:08:02.263Z,18.36
2022-09-07T04:09:02.895Z,18.36
2022-09-07T04:10:02.555Z,18.34
2022-09-07T04:11:02.702Z,18.30
2022-09-07T04:12:02.379Z,18.26
2022-09-07T04:13:02.225Z,18.25
2022-09-07T04:14:02.075Z,18.27
2022-09-07T04:15:01.925Z,18.27
2022-09-07T04:16:02.545Z,18.26
2022-09-07T04:17:02.924Z,18.29
2022-09-07T04:18:02.836Z,18.29
2022-09-07T04:19:02.664Z,18.27
2022-09-07T04:20:02.513Z,18.25
2022-09-07T04:21:03.062Z,18.21
2022-09-07T04:22:02.487Z,18.16
2022-09-07T04:23:02.339Z,18.16
2022-09-07T04:24:02.530Z,18.16
2022-09-07T04:25:02.146Z,18.14
2022-09-07T04:26:02.619Z,18.14
2022-09-07T04:27:02.810Z,18.18
2022-09-07T04:28:02.934Z,18.21
2022-09-07T04:29:02.594Z,18.20
2022-09-07T04:30:02.423Z,18.20
2022-09-07T04:31:03.056Z,18.20
2022-09-07T04:32:02.458Z,18.19
2022-09-07T04:33:01.926Z,18.17
2022-09-07T04:34:02.054Z,18.14
2022-09-07T04:35:01.989Z,18.12
2022-09-07T04:36:01.988Z,18.09
2022-09-07T04:37:02.711Z,18.09
2022-09-07T04:38:02.594Z,18.07
2022-09-07T04:39:02.483Z,18.02
2022-09-07T04:40:02.430Z,17.99
2022-09-07T04:41:02.394Z,17.95
2022-09-07T04:42:02.848Z,17.90
2022-09-07T04:43:02.757Z,17.86
2022-09-07T04:44:02.671Z,17.82
2022-09-07T04:45:02.343Z,17.78
2022-09-07T04:46:03.008Z,17.75
2022-09-07T04:47:03.474Z,17.74
2022-09-07T04:48:02.909Z,17.73
2022-09-07T04:49:03.483Z,17.74
2022-09-07T04:50:03.453Z,17.73
2022-09-07T04:51:05.788Z,17.73
2022-09-07T04:52:03.009Z,17.72
2022-09-07T04:53:02.486Z,17.73
2022-09-07T04:54:02.492Z,17.72
2022-09-07T04:55:02.530Z,17.71
2022-09-07T04:56:02.553Z,17.75
2022-09-07T04:57:03.186Z,17.83
2022-09-07T04:58:02.886Z,17.87
2022-09-07T04:59:02.853Z,17.86
2022-09-07T05:00:03.129Z,17.84
2022-09-07T05:01:02.720Z,17.81
2022-09-07T05:02:03.227Z,17.75
2022-09-07T05:03:03.341Z,17.70
2022-09-07T05:04:03.026Z,17.69
2022-09-07T05:05:03.101Z,17.70
2022-09-07T05:06:03.071Z,17.71
2022-09-07T05:07:03.603Z,17.69
2022-09-07T05:08:03.321Z,17.66
2022-09-07T05:09:03.139Z,17.64
2022-09-07T05:10:03.105Z,17.62
2022-09-07T05:11:03.115Z,17.59
2022-09-07T05:12:03.686Z,17.56
2022-09-07T05:13:03.719Z,17.58
2022-09-07T05:14:03.653Z,17.56
2022-09-07T05:15:03.675Z,17.55
2022-09-07T05:16:03.223Z,17.54
2022-09-07T05:17:03.882Z,17.57
2022-09-07T05:18:03.471Z,17.53
2022-09-07T05:19:03.495Z,17.46
2022-09-07T05:20:03.328Z,17.44
2022-09-07T05:21:03.253Z,17.48
2022-09-07T05:22:03.867Z,17.51
2022-09-07T05:23:03.329Z,17.57
2022-09-07T05:24:03.375Z,17.61
2022-09-07T05:25:03.406Z,17.63
2022-09-07T05:26:03.354Z,17.66
2022-09-07T05:27:03.420Z,17.69
2022-09-07T05:28:03.449Z,17.67
2022-09-07T05:30:05.002Z,17.66
2022-09-07T05:31:19.771Z,17.66
2022-09-07T05:32:02.831Z,17.60
2022-09-07T05:33:02.866Z,17.56
2022-09-07T05:35:02.986Z,17.50
2022-09-07T05:36:03.494Z,17.51
2022-09-07T05:37:03.836Z,17.52
2022-09-07T05:38:03.622Z,17.53
2022-09-07T05:39:03.640Z,17.52
2022-09-07T05:40:03.748Z,17.50
2022-09-07T05:41:03.589Z,17.52
2022-09-07T05:42:02.743Z,17.50
2022-09-07T05:43:02.887Z,17.47
2022-09-07T05:45:02.943Z,17.45
2022-09-07T05:46:03.001Z,17.42
2022-09-07T05:47:02.909Z,17.40
2022-09-07T05:48:03.476Z,17.42
2022-09-07T05:49:03.216Z,17.43
2022-09-07T05:50:03.349Z,17.47
2022-09-07T05:51:03.312Z,17.53
2022-09-07T05:52:03.324Z,17.55
2022-09-07T05:53:03.290Z,17.57
2022-09-07T05:54:03.779Z,17.62
2022-09-07T05:55:28.249Z,17.63
2022-09-07T05:56:06.996Z,17.64
2022-09-07T05:57:03.380Z,17.62
2022-09-07T05:58:03.171Z,17.62
2022-09-07T05:59:03.297Z,17.68
2022-09-07T06:00:03.192Z,17.68
2022-09-07T06:01:03.256Z,17.70
2022-09-07T06:02:02.589Z,17.70
2022-09-07T06:03:02.580Z,17.67
2022-09-07T06:04:02.842Z,17.63
2022-09-07T06:05:02.981Z,17.60
2022-09-07T06:06:02.695Z,17.59
2022-09-07T06:07:21.071Z,17.59
2022-09-07T06:08:02.495Z,17.59
2022-09-07T06:09:03.022Z,17.60
2022-09-07T06:11:02.771Z,17.66
2022-09-07T06:12:02.732Z,17.69
2022-09-07T06:13:02.716Z,17.74
2022-09-07T06:14:03.018Z,17.80
2022-09-07T06:15:03.072Z,17.86
2022-09-07T06:16:03.129Z,17.90
2022-09-07T06:17:03.126Z,17.95
2022-09-07T06:18:03.509Z,18.02
2022-09-07T06:19:03.475Z,18.07
2022-09-07T06:20:03.467Z,18.14
2022-09-07T06:21:03.035Z,18.19
2022-09-07T06:22:02.865Z,18.24
2022-09-07T06:23:02.815Z,18.32
2022-09-07T06:24:02.780Z,18.43
2022-09-07T06:25:02.785Z,18.52
2022-09-07T06:26:02.754Z,18.60
2022-09-07T06:27:02.624Z,18.67
2022-09-07T06:28:02.656Z,18.75
2022-09-07T06:29:02.695Z,18.80
2022-09-07T06:30:02.948Z,18.86
2022-09-07T06:31:02.361Z,18.90
2022-09-07T06:33:02.906Z,19.10
2022-09-07T06:34:03.046Z,19.21
2022-09-07T06:35:02.829Z,19.30
2022-09-07T06:36:02.960Z,19.41
2022-09-07T06:37:03.107Z,19.47
2022-09-07T06:38:03.032Z,19.49
2022-09-07T06:39:03.026Z,19.56
2022-09-07T06:40:03.112Z,19.66
2022-09-07T06:42:03.359Z,19.80
2022-09-07T06:43:03.052Z,19.89
2022-09-07T06:44:03.078Z,19.96
2022-09-07T06:45:03.613Z,20.05
2022-09-07T06:47:03.323Z,20.17
2022-09-07T06:48:03.061Z,20.21
2022-09-07T06:49:02.701Z,20.27
2022-09-07T06:50:02.858Z,20.36
2022-09-07T06:51:02.971Z,20.45
2022-09-07T06:52:02.696Z,20.54
2022-09-07T06:55:02.937Z,20.63
2022-09-07T06:56:02.945Z,20.60
2022-09-07T06:57:02.738Z,20.64
2022-09-07T06:58:02.759Z,20.70
2022-09-07T06:59:02.443Z,20.73
2022-09-07T07:00:02.942Z,20.76
2022-09-07T07:01:02.929Z,20.78
2022-09-07T07:02:02.789Z,20.79
2022-09-07T07:03:02.784Z,20.85
2022-09-07T07:04:02.834Z,20.93
2022-09-07T07:05:03.021Z,21.03
2022-09-07T07:06:02.660Z,21.05
2022-09-07T07:07:02.640Z,21.07
2022-09-07T07:08:02.343Z,21.07
2022-09-07T07:09:02.341Z,21.10
2022-09-07T07:10:02.325Z,21.10
2022-09-07T07:11:02.216Z,21.07
2022-09-07T07:12:02.972Z,21.00
2022-09-07T07:13:02.936Z,21.02
2022-09-07T07:14:03.001Z,21.01
2022-09-07T07:15:02.755Z,20.98
2022-09-07T07:16:02.835Z,21.00
2022-09-07T07:17:03.014Z,21.01
2022-09-07T07:18:19.732Z,21.04
2022-09-07T07:19:02.541Z,21.07
2022-09-07T07:20:02.602Z,21.05
2022-09-07T07:21:02.655Z,21.09
2022-09-07T07:22:14.421Z,21.12
2022-09-07T07:23:02.474Z,21.13
2022-09-07T07:24:07.500Z,21.20
2022-09-07T07:25:02.211Z,21.27
2022-09-07T07:26:02.252Z,21.30
2022-09-07T07:27:02.908Z,21.36
2022-09-07T07:29:03.843Z,21.45
2022-09-07T07:30:03.023Z,21.50
2022-09-07T07:31:07.183Z,21.54
2022-09-07T07:32:02.482Z,21.62
2022-09-07T07:33:01.972Z,21.70
2022-09-07T07:34:02.231Z,21.75
2022-09-07T07:35:02.277Z,21.81
2022-09-07T07:36:02.327Z,21.87
2022-09-07T07:37:02.765Z,21.93
2022-09-07T07:39:03.269Z,21.97
2022-09-07T07:40:20.447Z,22.01
2022-09-07T07:42:05.711Z,22.15
2022-09-07T07:43:03.288Z,22.24
2022-09-07T07:44:03.314Z,22.33
2022-09-07T07:46:05.627Z,22.51
2022-09-07T07:47:03.245Z,22.56
2022-09-07T07:48:03.041Z,22.64
2022-09-07T07:49:02.992Z,22.70
2022-09-07T07:51:09.834Z,22.81
2022-09-07T07:54:02.149Z,22.90
2022-09-07T07:55:42.515Z,22.97
2022-09-07T07:56:02.160Z,23.04
2022-09-07T07:57:02.869Z,23.09
2022-09-07T07:58:02.862Z,23.15
2022-09-07T07:59:02.652Z,23.18
2022-09-07T08:00:02.729Z,23.23
2022-09-07T08:01:02.885Z,23.17
2022-09-07T08:02:02.839Z,23.14
2022-09-07T08:03:03.056Z,23.12
2022-09-07T08:04:03.039Z,23.07
2022-09-07T08:05:03.081Z,23.02
2022-09-07T08:06:03.137Z,23.00
2022-09-07T08:07:07.005Z,23.00
2022-09-07T08:08:02.108Z,23.02
2022-09-07T08:09:02.255Z,23.03
2022-09-07T08:10:02.186Z,23.11
2022-09-07T08:11:02.400Z,23.20
2022-09-07T08:12:02.398Z,23.30
2022-09-07T08:13:02.467Z,23.36
2022-09-07T08:14:02.858Z,23.37
2022-09-07T08:15:02.923Z,23.41
2022-09-07T08:16:02.683Z,23.47
2022-09-07T08:17:02.667Z,23.59
2022-09-07T08:18:03.259Z,23.71
2022-09-07T08:19:02.812Z,23.85
2022-09-07T08:20:02.876Z,23.94
2022-09-07T08:21:03.071Z,23.93
2022-09-07T08:22:02.076Z,23.96
2022-09-07T08:23:02.138Z,24.06
2022-09-07T08:24:02.072Z,24.11
2022-09-07T08:25:02.120Z,24.06
2022-09-07T08:26:02.208Z,24.03
2022-09-07T08:27:02.133Z,24.02
2022-09-07T08:28:02.528Z,24.10
2022-09-07T08:29:02.117Z,24.07
2022-09-07T08:30:02.159Z,24.03
2022-09-07T08:31:02.921Z,24.01
2022-09-07T08:32:02.786Z,23.98
2022-09-07T08:33:02.854Z,23.98
2022-09-07T08:34:03.035Z,24.00
2022-09-07T08:35:02.961Z,24.05
2022-09-07T08:36:03.246Z,24.09
2022-09-07T08:37:02.812Z,24.16
2022-09-07T08:38:02.524Z,24.13
2022-09-07T08:39:02.430Z,24.20
2022-09-07T08:40:02.324Z,24.23
2022-09-07T08:41:02.473Z,24.27
2022-09-07T08:42:02.597Z,24.29
2022-09-07T08:43:02.601Z,24.32
2022-09-07T08:44:02.538Z,24.39
2022-09-07T08:45:02.911Z,24.39
2022-09-07T08:46:02.995Z,24.38
2022-09-07T08:47:03.081Z,24.36
2022-09-07T08:48:03.113Z,24.37
2022-09-07T08:49:03.003Z,24.40
2022-09-07T08:50:03.444Z,24.46
2022-09-07T08:51:03.413Z,24.59
2022-09-07T08:52:03.143Z,24.68
2022-09-07T08:53:03.482Z,24.77
2022-09-07T08:54:03.163Z,24.80
2022-09-07T08:55:03.217Z,24.84
2022-09-07T08:56:03.505Z,24.86
2022-09-07T08:58:02.766Z,24.77
2022-09-07T08:59:02.794Z,24.78
2022-09-07T09:00:02.743Z,24.82
2022-09-07T09:03:32.979Z,25.10
2022-09-07T09:04:19.442Z,25.15
2022-09-07T09:05:18.857Z,25.22
2022-09-07T09:06:02.862Z,25.27
2022-09-07T09:07:02.183Z,25.38
2022-09-07T09:08:02.327Z,25.45
2022-09-07T09:09:02.224Z,25.46
2022-09-07T09:10:02.236Z,25.49
2022-09-07T09:11:01.924Z,25.50
2022-09-07T09:12:02.644Z,25.54
2022-09-07T09:13:02.832Z,25.56
2022-09-07T09:14:02.814Z,25.55
2022-09-07T09:15:02.736Z,25.55
2022-09-07T09:16:02.668Z,25.53
2022-09-07T09:17:02.760Z,25.45
2022-09-07T09:18:02.851Z,25.47
2022-09-07T09:19:02.854Z,25.52
2022-09-07T09:20:02.844Z,25.57
2022-09-07T09:21:02.883Z,25.66
2022-09-07T09:22:02.898Z,25.69
2022-09-07T09:23:02.867Z,25.75
2022-09-07T09:24:02.930Z,25.79
2022-09-07T09:25:02.972Z,25.85
2022-09-07T09:26:03.009Z,25.89
2022-09-07T09:27:03.043Z,25.96
2022-09-07T09:28:02.957Z,26.06
2022-09-07T09:29:02.985Z,26.11
2022-09-07T09:30:03.090Z,26.19
2022-09-07T09:31:03.175Z,26.26
2022-09-07T09:32:02.657Z,26.24
2022-09-07T09:33:02.682Z,26.26
2022-09-07T09:34:02.507Z,26.26
2022-09-07T09:35:02.815Z,26.19
2022-09-07T09:36:02.666Z,26.19
2022-09-07T09:37:02.424Z,26.28
2022-09-07T09:38:02.394Z,26.31
2022-09-07T09:39:02.403Z,26.31
2022-09-07T09:40:02.953Z,26.42
2022-09-07T09:41:02.083Z,26.52
2022-09-07T09:42:02.534Z,26.59
2022-09-07T09:43:02.589Z,26.58
2022-09-07T09:44:02.528Z,26.65
2022-09-07T09:45:02.480Z,26.57
2022-09-07T09:46:17.946Z,26.49
2022-09-07T09:47:32.555Z,26.46
2022-09-07T09:48:02.639Z,26.52
2022-09-07T09:49:02.609Z,26.54
2022-09-07T09:50:02.759Z,26.64
2022-09-07T09:53:03.078Z,26.47
2022-09-07T09:54:02.841Z,26.52
2022-09-07T09:55:23.660Z,26.55
2022-09-07T09:56:02.882Z,26.58
2022-09-07T09:57:02.621Z,26.53
2022-09-07T09:59:55.044Z,26.61
2022-09-07T10:00:06.935Z,26.62
2022-09-07T10:04:06.373Z,26.50
2022-09-07T10:05:03.385Z,26.52
2022-09-07T10:06:03.467Z,26.54
2022-09-07T10:07:02.986Z,26.53
2022-09-07T10:08:02.974Z,26.52
2022-09-07T10:09:02.928Z,26.56
2022-09-07T10:10:02.982Z,26.58
2022-09-07T10:11:02.984Z,26.54
2022-09-07T10:12:07.608Z,26.53
2022-09-07T10:13:03.671Z,26.55
2022-09-07T10:14:03.376Z,26.59
2022-09-07T10:15:03.340Z,26.63
2022-09-07T10:16:03.445Z,26.59
2022-09-07T10:17:03.150Z,26.64
2022-09-07T10:18:02.766Z,26.75
2022-09-07T10:19:02.747Z,26.81
2022-09-07T10:20:02.752Z,26.85
2022-09-07T10:21:02.691Z,26.90
2022-09-07T10:22:03.402Z,26.93
2022-09-07T10:23:03.311Z,26.98
2022-09-07T10:24:03.251Z,27.00
2022-09-07T10:25:03.092Z,27.03
2022-09-07T10:26:02.952Z,27.04
2022-09-07T10:27:03.678Z,27.04
2022-09-07T10:28:03.701Z,27.04
2022-09-07T10:29:06.802Z,27.06
2022-09-07T10:30:06.606Z,27.10
2022-09-07T10:31:03.473Z,27.14
2022-09-07T10:32:03.271Z,27.17
2022-09-07T10:33:03.192Z,27.18
2022-09-07T10:35:03.219Z,27.17
2022-09-07T10:36:03.404Z,27.12
2022-09-07T10:37:03.615Z,27.10
2022-09-07T10:38:03.640Z,27.15
2022-09-07T10:39:03.374Z,27.17
2022-09-07T10:40:03.199Z,27.26
2022-09-07T10:41:03.746Z,27.32
2022-09-07T10:42:03.219Z,27.31
2022-09-07T10:44:02.990Z,27.42
2022-09-07T10:45:02.946Z,27.41
2022-09-07T10:46:02.821Z,27.46
2022-09-07T10:47:03.435Z,27.47
2022-09-07T10:48:03.184Z,27.49
2022-09-07T10:49:03.107Z,27.50
2022-09-07T10:51:12.469Z,27.56
2022-09-07T10:52:03.747Z,27.52
2022-09-07T10:53:13.576Z,27.48
2022-09-07T10:55:03.257Z,27.50
2022-09-07T10:56:03.689Z,27.50
2022-09-07T10:57:04.035Z,27.51
2022-09-07T10:58:04.064Z,27.46
2022-09-07T10:59:04.225Z,27.38
2022-09-07T11:00:10.930Z,27.28
2022-09-07T11:01:03.485Z,27.17
2022-09-07T11:02:03.108Z,27.15
2022-09-07T11:04:03.272Z,27.13
2022-09-07T11:05:03.314Z,27.10
2022-09-07T11:06:03.332Z,27.12
2022-09-07T11:07:03.710Z,27.07
2022-09-07T11:08:03.103Z,27.08
2022-09-07T11:09:19.438Z,27.07
2022-09-07T11:10:03.004Z,27.03
2022-09-07T11:11:02.808Z,26.93
2022-09-07T11:12:04.224Z,26.87
2022-09-07T11:13:02.719Z,26.86
2022-09-07T11:14:12.948Z,26.80
2022-09-07T11:15:02.672Z,26.68
2022-09-07T11:16:02.746Z,26.63
2022-09-07T11:17:02.954Z,26.66
2022-09-07T11:18:02.992Z,26.69
2022-09-07T11:20:03.442Z,26.69
2022-09-07T11:21:02.787Z,26.69
2022-09-07T11:22:02.812Z,26.66
2022-09-07T11:23:03.409Z,26.67
2022-09-07T11:24:03.369Z,26.68
2022-09-07T11:26:03.800Z,26.70
2022-09-07T11:27:03.435Z,26.72
2022-09-07T11:28:03.173Z,26.67
2022-09-07T11:30:03.093Z,26.64
2022-09-07T11:31:03.164Z,26.66
2022-09-07T11:32:03.168Z,26.62
2022-09-07T11:33:04.048Z,26.61
2022-09-07T11:35:03.647Z,26.64
2022-09-07T11:36:03.646Z,26.69
2022-09-07T11:37:03.902Z,26.67
2022-09-07T11:38:03.774Z,26.72
2022-09-07T11:39:03.761Z,26.78
2022-09-07T11:40:03.879Z,26.81
2022-09-07T11:41:03.917Z,26.88
2022-09-07T11:42:42.665Z,26.96
2022-09-07T11:43:02.929Z,27.00
2022-09-07T11:44:03.053Z,27.07
2022-09-07T11:45:03.121Z,27.15
2022-09-07T11:46:03.174Z,27.18
2022-09-07T11:47:02.874Z,27.28
2022-09-07T11:48:03.219Z,27.39
2022-09-07T11:49:04.574Z,27.49
2022-09-07T11:50:03.199Z,27.55
2022-09-07T11:51:03.201Z,27.70
2022-09-07T11:52:06.322Z,27.81
2022-09-07T11:53:03.886Z,27.85
2022-09-07T11:54:03.636Z,27.86
2022-09-07T11:55:03.723Z,27.85
2022-09-07T11:56:03.877Z,27.89
2022-09-07T11:57:03.664Z,27.99
2022-09-07T11:58:03.827Z,28.09
2022-09-07T11:59:03.876Z,28.24
2022-09-07T12:00:03.485Z,28.26
2022-09-07T12:01:03.649Z,28.34
2022-09-07T12:02:03.827Z,28.41
2022-09-07T12:03:02.893Z,28.49
2022-09-07T12:04:03.031Z,28.54
2022-09-07T12:05:02.965Z,28.54
2022-09-07T12:06:02.708Z,28.51
2022-09-07T12:07:02.582Z,28.54
2022-09-07T12:08:03.477Z,28.57
2022-09-07T12:09:03.237Z,28.63
2022-09-07T12:10:03.280Z,28.64
2022-09-07T12:11:03.306Z,28.73
2022-09-07T12:12:03.175Z,28.90
2022-09-07T12:13:02.346Z,28.98
2022-09-07T12:14:02.422Z,29.05
2022-09-07T12:15:02.457Z,29.11
2022-09-07T12:16:03.119Z,29.12
2022-09-07T12:17:02.851Z,29.17
2022-09-07T12:18:03.562Z,29.20
2022-09-07T12:19:03.189Z,29.22
2022-09-07T12:20:03.179Z,29.28
2022-09-07T12:21:03.139Z,29.22
2022-09-07T12:22:03.048Z,29.16
2022-09-07T12:23:05.145Z,29.14
2022-09-07T12:24:03.580Z,29.09
2022-09-07T12:25:03.814Z,29.08
2022-09-07T12:26:03.533Z,29.08
2022-09-07T12:27:03.481Z,29.02
2022-09-07T12:28:03.136Z,28.96
2022-09-07T12:29:02.978Z,28.91
2022-09-07T12:30:03.005Z,28.77
2022-09-07T12:31:02.805Z,28.75
2022-09-07T12:33:03.311Z,28.92
2022-09-07T12:34:03.237Z,29.03
2022-09-07T12:35:03.304Z,29.16
2022-09-07T12:36:03.355Z,29.24
2022-09-07T12:37:03.431Z,29.36
2022-09-07T12:38:04.087Z,29.46
2022-09-07T12:39:03.698Z,29.48
2022-09-07T12:40:04.001Z,29.45
2022-09-07T12:41:03.833Z,29.36
2022-09-07T12:43:09.648Z,29.52
2022-09-07T12:44:03.287Z,29.62
2022-09-07T12:45:03.086Z,29.68
2022-09-07T12:46:03.221Z,29.68
2022-09-07T12:47:03.165Z,29.65
2022-09-07T12:48:04.609Z,29.66
2022-09-07T12:49:03.177Z,29.78
2022-09-07T12:50:03.299Z,29.94
2022-09-07T12:51:03.244Z,30.13
2022-09-07T12:52:14.894Z,30.25
2022-09-07T12:53:03.604Z,30.30
2022-09-07T12:54:03.971Z,30.34
2022-09-07T12:55:26.474Z,30.45
2022-09-07T12:56:19.171Z,30.57
2022-09-07T12:58:03.315Z,30.63
2022-09-07T12:59:03.358Z,30.69
2022-09-07T13:00:03.278Z,30.68
2022-09-07T13:01:05.576Z,30.61
2022-09-07T13:02:02.938Z,30.63
2022-09-07T13:03:03.902Z,30.73
2022-09-07T13:04:02.581Z,30.79
2022-09-07T13:05:02.656Z,30.84
2022-09-07T13:06:02.808Z,30.77
2022-09-07T13:07:03.309Z,30.56
2022-09-07T13:08:08.725Z,30.46
2022-09-07T13:09:02.754Z,30.48
2022-09-07T13:10:02.897Z,30.42
2022-09-07T13:11:02.808Z,30.27
2022-09-07T13:12:03.194Z,30.17
2022-09-07T13:13:02.374Z,30.13
2022-09-07T13:14:04.502Z,30.22
2022-09-07T13:15:02.379Z,30.33
2022-09-07T13:16:03.728Z,30.47
2022-09-07T13:17:18.255Z,30.51
2022-09-07T13:18:02.715Z,30.56
2022-09-07T13:19:02.784Z,30.66
2022-09-07T13:20:02.799Z,30.76
2022-09-07T13:21:02.602Z,30.89
2022-09-07T13:22:02.577Z,31.00
2022-09-07T13:23:03.661Z,31.01
2022-09-07T13:24:45.571Z,30.89
2022-09-07T13:25:03.651Z,30.82
2022-09-07T13:26:03.721Z,30.84
2022-09-07T13:27:03.769Z,30.81
2022-09-07T13:28:02.479Z,30.79
2022-09-07T13:29:02.490Z,30.76